Sirios Cement IV — 9HQE8 — position and weather

sailwx.info

Track history (hours):
 
Tides and Currents Weather Stations Pressure Air Temp Water Temp Dewpoint Dewpoint Depression Visibility Wind Speed Wind Dir Waves Ship Positions

Sirios Cement IV

Last reported at 2016-Jun-18 23:29 UTC. Time now 2016-Jun-25 08:47 UTC.
Position N 38°15' E 021°17'.

Length 134 m; draft 5.9 m.

Type: Cargo ship. MMSI: 256278000.

Date/timePositionNaut miles runAvg speedWind from/ knotsBaromVisibWave heightAir tempDewpointWater temp
2016-Jun-18 23:29N 38°15' E 021°17'9 9.7
2016-Jun-18 22:33N 38°15' E 021°05'  
2016-Jun-16 09:11N 45°10' E 012°35'6 9.1
2016-Jun-16 08:33N 45°14' E 012°29'9 9.1
2016-Jun-16 07:34N 45°20' E 012°20'7 6.7
2016-Jun-16 06:34N 45°26' E 012°16'2 1.6
2016-Jun-16 05:33N 45°28' E 012°15'0 0.0
2016-Jun-16 04:33N 45°28' E 012°15'0 0.0
2016-Jun-16 02:30N 45°28' E 012°15'0 0.0
2016-Jun-16 01:33N 45°28' E 012°15'0 0.0
2016-Jun-16 00:30N 45°28' E 012°15'0 0.0
2016-Jun-15 23:33N 45°28' E 012°15'0 0.0
2016-Jun-15 22:33N 45°28' E 012°15'0 0.0
2016-Jun-15 21:30N 45°28' E 012°15'0 0.0
2016-Jun-15 20:33N 45°28' E 012°15'0 0.0
2016-Jun-15 19:33N 45°28' E 012°15'0 0.0
2016-Jun-15 18:33N 45°28' E 012°15'0 0.0
2016-Jun-15 17:13N 45°28' E 012°15'0 0.0
2016-Jun-15 16:18N 45°28' E 012°15'0 0.0
2016-Jun-15 15:24N 45°28' E 012°15'0 0.0
2016-Jun-15 04:18N 45°28' E 012°15'0 0.0
2016-Jun-15 02:33N 45°28' E 012°15'0 0.0
2016-Jun-15 01:18N 45°28' E 012°15'0 0.0
2016-Jun-15 00:24N 45°28' E 012°15'0 0.0
2016-Jun-14 23:30N 45°28' E 012°15'0 0.0
2016-Jun-14 22:33N 45°28' E 012°15'0 0.0
2016-Jun-14 21:33N 45°28' E 012°15'0 0.0
2016-Jun-14 20:30N 45°28' E 012°15'0 0.0
2016-Jun-14 19:30N 45°28' E 012°15'0 0.0
2016-Jun-14 18:06N 45°28' E 012°15'0 0.0
2016-Jun-14 17:12N 45°28' E 012°15'0 0.0
2016-Jun-14 16:15N 45°28' E 012°15'0 0.0
2016-Jun-14 15:21N 45°28' E 012°15'0 0.0
2016-Jun-14 14:18N 45°28' E 012°15'0 0.0
2016-Jun-14 09:09N 45°28' E 012°15'0 0.0
2016-Jun-14 04:03N 45°28' E 012°15'0 0.0
2016-Jun-14 03:33N 45°28' E 012°15'0 0.0
2016-Jun-14 02:24N 45°28' E 012°15'0 0.0
2016-Jun-14 01:24N 45°28' E 012°15'0 0.0
2016-Jun-14 00:33N 45°28' E 012°15'0 0.0
2016-Jun-13 23:27N 45°28' E 012°15'0 0.0
2016-Jun-13 21:21N 45°28' E 012°15'0 0.0
2016-Jun-13 05:24N 45°28' E 012°15'0 0.0
2016-Jun-13 04:24N 45°28' E 012°15'0 0.0
2016-Jun-13 03:30N 45°28' E 012°15'0 0.0
2016-Jun-13 02:09N 45°28' E 012°15'0 0.0
2016-Jun-13 01:27N 45°28' E 012°15'0 0.0
2016-Jun-13 00:27N 45°28' E 012°15'0 0.0
2016-Jun-12 23:33N 45°28' E 012°15'0 0.0
2016-Jun-12 22:27N 45°28' E 012°15'0 0.0
2016-Jun-12 21:33N 45°28' E 012°15'0 0.0
2016-Jun-12 20:33N 45°28' E 012°15'0 0.0
2016-Jun-12 19:27N 45°28' E 012°15'0 0.0
2016-Jun-12 18:30N 45°28' E 012°15'0 0.0
2016-Jun-12 17:30N 45°28' E 012°15'0 0.0
2016-Jun-12 04:28N 45°28' E 012°15'0 0.0
2016-Jun-12 03:31N 45°28' E 012°15'0 0.0
2016-Jun-12 01:19N 45°28' E 012°15'0 0.0
2016-Jun-11 23:25N 45°28' E 012°15'0 0.0
2016-Jun-11 21:31N 45°28' E 012°15'0 0.0
2016-Jun-11 20:31N 45°28' E 012°15'0 0.0
2016-Jun-11 19:28N 45°28' E 012°15'0 0.0
2016-Jun-11 18:31N 45°28' E 012°15'0 0.0
2016-Jun-11 17:31N 45°28' E 012°15'0 0.0
2016-Jun-11 16:16N 45°28' E 012°15'0 0.0
2016-Jun-11 15:31N 45°28' E 012°15'0 0.0
2016-Jun-11 14:31N 45°28' E 012°15'0 0.0
2016-Jun-11 07:13N 45°28' E 012°15'0 0.0
2016-Jun-11 06:28N 45°28' E 012°15'0 0.0
2016-Jun-11 04:07N 45°28' E 012°15'0 0.0
2016-Jun-11 03:28N 45°28' E 012°15'0 0.0
2016-Jun-11 02:22N 45°28' E 012°15'0 0.0
2016-Jun-11 01:31N 45°28' E 012°15'0 0.0
2016-Jun-11 00:28N 45°28' E 012°15'0 0.0
2016-Jun-10 23:28N 45°28' E 012°15'0 0.0
2016-Jun-10 22:13N 45°28' E 012°15'0 0.0
2016-Jun-10 19:10N 45°28' E 012°15'0 0.0
2016-Jun-10 11:21N 45°28' E 012°15'2 2.1
2016-Jun-10 10:31N 45°26' E 012°16'7 7.0
2016-Jun-10 09:34N 45°20' E 012°20'9 9.1
2016-Jun-10 08:33N 45°17' E 012°32'9 9.4
2016-Jun-10 07:33N 45°11' E 012°42'  
Track history (hours):
 
Tides and Currents Weather Stations Pressure Air Temp Water Temp Dewpoint Dewpoint Depression Visibility Wind Speed Wind Dir Waves Ship Positions

Sirios Cement IV

Last reported at 2016-Jun-18 23:29 UTC. Time now 2016-Jun-25 08:47 UTC.
Position N 38°15' E 021°17'.

Length 134 m; draft 5.9 m.

Type: Cargo ship. MMSI: 256278000.

Date/timePositionNaut miles runAvg speedWind from/ knotsBaromVisibWave heightAir tempDewpointWater temp
2016-Jun-18 23:29N 38°15' E 021°17'9 9.7
2016-Jun-18 22:33N 38°15' E 021°05'  
2016-Jun-16 09:11N 45°10' E 012°35'6 9.1
2016-Jun-16 08:33N 45°14' E 012°29'9 9.1
2016-Jun-16 07:34N 45°20' E 012°20'7 6.7
2016-Jun-16 06:34N 45°26' E 012°16'2 1.6
2016-Jun-16 05:33N 45°28' E 012°15'0 0.0
2016-Jun-16 04:33N 45°28' E 012°15'0 0.0
2016-Jun-16 02:30N 45°28' E 012°15'0 0.0
2016-Jun-16 01:33N 45°28' E 012°15'0 0.0
2016-Jun-16 00:30N 45°28' E 012°15'0 0.0
2016-Jun-15 23:33N 45°28' E 012°15'0 0.0
2016-Jun-15 22:33N 45°28' E 012°15'0 0.0
2016-Jun-15 21:30N 45°28' E 012°15'0 0.0
2016-Jun-15 20:33N 45°28' E 012°15'0 0.0
2016-Jun-15 19:33N 45°28' E 012°15'0 0.0
2016-Jun-15 18:33N 45°28' E 012°15'0 0.0
2016-Jun-15 17:13N 45°28' E 012°15'0 0.0
2016-Jun-15 16:18N 45°28' E 012°15'0 0.0
2016-Jun-15 15:24N 45°28' E 012°15'0 0.0
2016-Jun-15 04:18N 45°28' E 012°15'0 0.0
2016-Jun-15 02:33N 45°28' E 012°15'0 0.0
2016-Jun-15 01:18N 45°28' E 012°15'0 0.0
2016-Jun-15 00:24N 45°28' E 012°15'0 0.0
2016-Jun-14 23:30N 45°28' E 012°15'0 0.0
2016-Jun-14 22:33N 45°28' E 012°15'0 0.0
2016-Jun-14 21:33N 45°28' E 012°15'0 0.0
2016-Jun-14 20:30N 45°28' E 012°15'0 0.0
2016-Jun-14 19:30N 45°28' E 012°15'0 0.0
2016-Jun-14 18:06N 45°28' E 012°15'0 0.0
2016-Jun-14 17:12N 45°28' E 012°15'0 0.0
2016-Jun-14 16:15N 45°28' E 012°15'0 0.0
2016-Jun-14 15:21N 45°28' E 012°15'0 0.0
2016-Jun-14 14:18N 45°28' E 012°15'0 0.0
2016-Jun-14 09:09N 45°28' E 012°15'0 0.0
2016-Jun-14 04:03N 45°28' E 012°15'0 0.0
2016-Jun-14 03:33N 45°28' E 012°15'0 0.0
2016-Jun-14 02:24N 45°28' E 012°15'0 0.0
2016-Jun-14 01:24N 45°28' E 012°15'0 0.0
2016-Jun-14 00:33N 45°28' E 012°15'0 0.0
2016-Jun-13 23:27N 45°28' E 012°15'0 0.0
2016-Jun-13 21:21N 45°28' E 012°15'0 0.0
2016-Jun-13 05:24N 45°28' E 012°15'0 0.0
2016-Jun-13 04:24N 45°28' E 012°15'0 0.0
2016-Jun-13 03:30N 45°28' E 012°15'0 0.0
2016-Jun-13 02:09N 45°28' E 012°15'0 0.0
2016-Jun-13 01:27N 45°28' E 012°15'0 0.0
2016-Jun-13 00:27N 45°28' E 012°15'0 0.0
2016-Jun-12 23:33N 45°28' E 012°15'0 0.0
2016-Jun-12 22:27N 45°28' E 012°15'0 0.0
2016-Jun-12 21:33N 45°28' E 012°15'0 0.0
2016-Jun-12 20:33N 45°28' E 012°15'0 0.0
2016-Jun-12 19:27N 45°28' E 012°15'0 0.0
2016-Jun-12 18:30N 45°28' E 012°15'0 0.0
2016-Jun-12 17:30N 45°28' E 012°15'0 0.0
2016-Jun-12 04:28N 45°28' E 012°15'0 0.0
2016-Jun-12 03:31N 45°28' E 012°15'0 0.0
2016-Jun-12 01:19N 45°28' E 012°15'0 0.0
2016-Jun-11 23:25N 45°28' E 012°15'0 0.0
2016-Jun-11 21:31N 45°28' E 012°15'0 0.0
2016-Jun-11 20:31N 45°28' E 012°15'0 0.0
2016-Jun-11 19:28N 45°28' E 012°15'0 0.0
2016-Jun-11 18:31N 45°28' E 012°15'0 0.0
2016-Jun-11 17:31N 45°28' E 012°15'0 0.0
2016-Jun-11 16:16N 45°28' E 012°15'0 0.0
2016-Jun-11 15:31N 45°28' E 012°15'0 0.0
2016-Jun-11 14:31N 45°28' E 012°15'0 0.0
2016-Jun-11 07:13N 45°28' E 012°15'0 0.0
2016-Jun-11 06:28N 45°28' E 012°15'0 0.0
2016-Jun-11 04:07N 45°28' E 012°15'0 0.0
2016-Jun-11 03:28N 45°28' E 012°15'0 0.0
2016-Jun-11 02:22N 45°28' E 012°15'0 0.0
2016-Jun-11 01:31N 45°28' E 012°15'0 0.0
2016-Jun-11 00:28N 45°28' E 012°15'0 0.0
2016-Jun-10 23:28N 45°28' E 012°15'0 0.0
2016-Jun-10 22:13N 45°28' E 012°15'0 0.0
2016-Jun-10 19:10N 45°28' E 012°15'0 0.0
2016-Jun-10 11:21N 45°28' E 012°15'2 2.1
2016-Jun-10 10:31N 45°26' E 012°16'7 7.0
2016-Jun-10 09:34N 45°20' E 012°20'9 9.1
2016-Jun-10 08:33N 45°17' E 012°32'9 9.4
2016-Jun-10 07:33N 45°11' E 012°42'  

Dump ship's entire track history